Aeroporto :
LOGIN :

Iscrizione | Disclaimer

   EN    FR    IT 

 










Sommario :    VFR   VFR Marginale   IFR   IFR Intensivo   IFR Molto Intensivo
Visibilità : 
Base nubi : 
>= 8 km
>= 3000ft
5 / 8 km
1000 / 3000 ft
1500m / 5 km
500 / 1000 ft
800 / 1500m
200 / 500 ft
< 800m
< 200 ft
Simboli :   Temporali  Nebbia  Neve Forte  Precipitazioni Forti  Vento > 20 kt
SIGMETs :   Varie  Temporali  Ghiacco  Turbolenza  Onda orograficha  Ceneri Vulcaniche






- Altitudine del aeroporto : 325 ft
- Codice IATA : BES


LFRB - Brest

ULTIMO METAR :
  • 250200Z AUTO 35006KT CAVOK 11/10 Q1019 TEMPO 4000 SHRA BKN012CB

METARs OBSOLETI :
  • 250130Z AUTO 35006KT CAVOK 11/10 Q1019 TEMPO 4000 SHRA BKN012CB
  • 250030Z AUTO 35004KT CAVOK 10/10 Q1019 TEMPO 4000 SHRA BKN012CB

TAF TAF LFRB
Valido dal 25 a 00 ore il 26 a 06 ore UTC


242300Z 2500/2606 01005KT 9999 SCT020
TEMPO 2500/2507 2000 BR
PROB30
TEMPO 2500/2507 4000 SHRA BKN012CB
PROB30
TEMPO 2507/2510 BKN012TCU
BECMG 2508/2510 03010KT
BECMG 2517/2519 VRB03KT
TEMPO 2520/2602 2000 BR
BECMG 2602/2604 26010KT
TEMPO 2604/2606 BKN010
ATIS : +33 2 98 32 02 71



MetMap, La meteo Aeronautica in un colpo d'occhio ! - Copyright ORBIFLY Dicembre 2007 - Disclaimer

ORBIFLY MET'MAP TEAM :

Programmazione e sviluppo : Alexandra Zaïnal
Concezione : Baudouin d'Aumeries
Supporto tecnico e logistico : Manuel Goepfert
Aiuto : Marc-Olivier Méhu
Aiuto per la traduzione : Arnaldo La Scala




FONTI E CREDITI :

   NOAA